createdAt,value
2019-01-04T00:00:04.226Z,44.40
2019-01-04T00:01:04.211Z,46.90
2019-01-04T00:02:04.241Z,44.00
2019-01-04T00:03:04.235Z,45.40
2019-01-04T00:04:04.177Z,48.80
2019-01-04T00:05:04.201Z,46.00
2019-01-04T00:06:04.164Z,46.40
2019-01-04T00:07:04.154Z,47.60
2019-01-04T00:08:04.176Z,52.50
2019-01-04T00:09:04.122Z,56.10
2019-01-04T00:10:04.114Z,58.00
2019-01-04T00:11:04.103Z,57.60
2019-01-04T00:12:04.102Z,50.30
2019-01-04T00:13:04.120Z,52.80
2019-01-04T00:14:04.111Z,54.60
2019-01-04T00:15:04.061Z,50.50
2019-01-04T00:16:04.046Z,48.80
2019-01-04T00:17:04.037Z,51.50
2019-01-04T00:18:04.024Z,51.70
2019-01-04T00:19:04.052Z,47.90
2019-01-04T00:20:04.008Z,56.80
2019-01-04T00:21:04.026Z,65.30
2019-01-04T00:22:03.979Z,48.70
2019-01-04T00:23:03.971Z,58.30
2019-01-04T00:24:03.986Z,62.20
2019-01-04T00:25:03.948Z,55.60
2019-01-04T00:26:03.966Z,52.90
2019-01-04T00:27:03.940Z,60.40
2019-01-04T00:28:03.913Z,68.30
2019-01-04T00:29:03.903Z,57.60
2019-01-04T00:30:03.947Z,60.20
2019-01-04T00:31:03.881Z,62.80
2019-01-04T00:32:03.874Z,69.90
2019-01-04T00:33:03.876Z,68.10
2019-01-04T00:34:03.845Z,65.80
2019-01-04T00:35:03.876Z,65.90
2019-01-04T00:36:03.829Z,88.30
2019-01-04T00:37:03.831Z,81.40
2019-01-04T00:38:03.839Z,78.00
2019-01-04T00:39:03.807Z,80.20
2019-01-04T00:40:03.795Z,92.10
2019-01-04T00:41:03.791Z,67.50
2019-01-04T00:42:03.758Z,66.80
2019-01-04T00:43:03.805Z,101.10
2019-01-04T00:44:03.736Z,77.90
2019-01-04T00:45:03.731Z,80.40
2019-01-04T00:46:03.750Z,96.80
2019-01-04T00:47:03.728Z,94.60
2019-01-04T00:48:03.692Z,88.90
2019-01-04T00:49:03.680Z,88.00
2019-01-04T00:50:03.698Z,96.10
2019-01-04T00:51:03.664Z,102.50
2019-01-04T00:52:03.668Z,106.00
2019-01-04T00:53:03.639Z,119.50
2019-01-04T00:54:03.650Z,101.80
2019-01-04T00:55:03.631Z,99.40
2019-01-04T00:56:03.612Z,110.70
2019-01-04T00:57:03.601Z,108.90
2019-01-04T00:58:03.594Z,119.60
2019-01-04T00:59:03.580Z,135.90
2019-01-04T01:00:03.614Z,103.40
2019-01-04T01:01:03.545Z,116.10
2019-01-04T01:02:03.554Z,121.20
2019-01-04T01:03:03.528Z,134.20
2019-01-04T01:04:03.525Z,141.10
2019-01-04T01:05:03.540Z,141.00
2019-01-04T01:06:03.520Z,137.90
2019-01-04T01:07:03.487Z,152.90
2019-01-04T01:08:03.471Z,156.70
2019-01-04T01:09:03.473Z,268.20
2019-01-04T01:10:03.471Z,244.40
2019-01-04T01:11:03.443Z,251.40
2019-01-04T01:12:03.425Z,285.70
2019-01-04T01:13:03.439Z,260.60
2019-01-04T01:14:03.420Z,273.00
2019-01-04T01:15:03.405Z,362.30
2019-01-04T01:16:03.426Z,293.30
2019-01-04T01:17:03.372Z,326.10
2019-01-04T01:18:03.364Z,361.00
2019-01-04T01:19:03.349Z,385.30
2019-01-04T01:20:03.354Z,346.00
2019-01-04T01:21:03.363Z,477.30
2019-01-04T01:22:03.315Z,468.50
2019-01-04T01:23:03.305Z,327.80
2019-01-04T01:24:03.317Z,405.20
2019-01-04T01:25:03.289Z,392.30
2019-01-04T01:26:03.276Z,446.30
2019-01-04T01:27:03.264Z,436.70
2019-01-04T01:28:03.251Z,332.10
2019-01-04T01:29:03.265Z,464.10
2019-01-04T01:30:03.255Z,406.00
2019-01-04T01:31:03.219Z,379.20
2019-01-04T01:32:03.209Z,330.60
2019-01-04T01:33:03.194Z,356.80
2019-01-04T01:34:03.195Z,362.20
2019-01-04T01:35:03.204Z,311.30
2019-01-04T01:36:03.156Z,417.00
2019-01-04T01:37:03.153Z,302.00
2019-01-04T01:38:03.136Z,320.60
2019-01-04T01:39:03.130Z,404.70
2019-01-04T01:40:03.148Z,268.90
2019-01-04T01:41:03.104Z,298.50
2019-01-04T01:42:03.109Z,260.20
2019-01-04T01:43:03.080Z,316.80
2019-01-04T01:44:03.079Z,332.70
2019-01-04T01:45:03.112Z,268.20
2019-01-04T01:46:03.075Z,298.10
2019-01-04T01:47:03.054Z,273.00
2019-01-04T01:48:03.050Z,288.70
2019-01-04T01:49:03.045Z,288.10
2019-01-04T01:50:03.006Z,292.70
2019-01-04T01:51:02.998Z,363.00
2019-01-04T01:52:02.993Z,328.90
2019-01-04T01:53:02.978Z,276.10
2019-01-04T01:54:03.006Z,265.30
2019-01-04T01:55:02.952Z,234.70
2019-01-04T01:56:02.950Z,276.30
2019-01-04T01:57:02.941Z,278.00
2019-01-04T01:58:02.938Z,267.10
2019-01-04T01:59:02.948Z,257.60
2019-01-04T02:00:02.929Z,268.40
2019-01-04T02:01:02.884Z,319.40
2019-01-04T02:02:02.874Z,339.80
2019-01-04T02:03:02.890Z,280.30
2019-01-04T02:04:02.884Z,260.60
2019-01-04T02:05:02.876Z,294.00
2019-01-04T02:06:02.844Z,315.10
2019-01-04T02:07:02.821Z,275.80
2019-01-04T02:08:02.806Z,282.00
2019-01-04T02:09:07.288Z,304.00
2019-01-04T02:10:02.815Z,312.70
2019-01-04T02:11:02.794Z,222.40
2019-01-04T02:12:02.793Z,257.60
2019-01-04T02:13:02.764Z,205.60
2019-01-04T02:14:02.771Z,258.10
2019-01-04T02:15:02.757Z,243.50
2019-01-04T02:16:02.739Z,296.10
2019-01-04T02:17:02.709Z,252.40
2019-01-04T02:18:02.699Z,295.20
2019-01-04T02:19:02.719Z,307.30
2019-01-04T02:20:02.694Z,262.50
2019-01-04T02:21:02.674Z,279.30
2019-01-04T02:22:02.653Z,309.80
2019-01-04T02:23:02.641Z,292.10
2019-01-04T02:24:02.660Z,262.50
2019-01-04T02:25:02.623Z,288.70
2019-01-04T02:26:02.618Z,306.00
2019-01-04T02:27:02.614Z,268.80
2019-01-04T02:28:02.587Z,313.10
2019-01-04T02:29:02.599Z,289.50
2019-01-04T02:30:02.594Z,251.90
2019-01-04T02:31:02.550Z,343.50
2019-01-04T02:32:02.577Z,303.70
2019-01-04T02:33:02.540Z,271.90
2019-01-04T02:34:02.526Z,290.10
2019-01-04T02:35:02.527Z,267.20
2019-01-04T02:36:02.497Z,301.00
2019-01-04T02:37:02.515Z,267.30
2019-01-04T02:38:02.475Z,247.90
2019-01-04T02:39:02.469Z,295.30
2019-01-04T02:40:02.457Z,228.70
2019-01-04T02:41:02.458Z,229.30
2019-01-04T02:42:02.458Z,186.30
2019-01-04T02:43:02.451Z,217.90
2019-01-04T02:44:02.420Z,222.60
2019-01-04T02:45:02.422Z,191.60
2019-01-04T02:46:02.411Z,232.80
2019-01-04T02:47:02.376Z,223.50
2019-01-04T02:48:02.389Z,214.10
2019-01-04T02:49:02.353Z,207.10
2019-01-04T02:50:02.345Z,239.80
2019-01-04T02:51:02.335Z,281.50
2019-01-04T02:52:02.327Z,237.70
2019-01-04T02:53:02.331Z,192.90
2019-01-04T02:54:02.342Z,259.30
2019-01-04T02:55:02.285Z,242.40
2019-01-04T02:56:02.276Z,264.00
2019-01-04T02:57:02.290Z,293.10
2019-01-04T02:58:02.287Z,250.80
2019-01-04T02:59:02.249Z,252.60
2019-01-04T03:00:02.241Z,264.40
2019-01-04T03:01:02.220Z,274.90
2019-01-04T03:02:02.235Z,277.00
2019-01-04T03:03:02.232Z,247.70
2019-01-04T03:04:02.188Z,271.60
2019-01-04T03:05:02.175Z,285.40
2019-01-04T03:06:02.189Z,266.80
2019-01-04T03:07:02.169Z,294.10
2019-01-04T03:08:02.157Z,283.70
2019-01-04T03:09:02.159Z,273.20
2019-01-04T03:10:02.128Z,276.20
2019-01-04T03:11:02.125Z,293.00
2019-01-04T03:12:02.100Z,337.60
2019-01-04T03:13:02.094Z,355.20
2019-01-04T03:14:02.112Z,346.30
2019-01-04T03:15:02.079Z,280.90
2019-01-04T03:16:02.066Z,362.20
2019-01-04T03:17:02.055Z,293.60
2019-01-04T03:18:02.031Z,400.70
2019-01-04T03:19:02.062Z,386.30
2019-01-04T03:20:02.021Z,440.70
2019-01-04T03:21:02.005Z,398.80
2019-01-04T03:22:01.987Z,291.50
2019-01-04T03:23:01.992Z,387.70
2019-01-04T03:24:02.001Z,294.30
2019-01-04T03:25:01.966Z,541.80
2019-01-04T03:26:01.948Z,576.60
2019-01-04T03:27:01.941Z,551.40
2019-01-04T03:28:01.921Z,510.40
2019-01-04T03:29:01.934Z,578.20
2019-01-04T03:30:01.927Z,545.90
2019-01-04T03:31:01.921Z,589.80
2019-01-04T03:32:01.885Z,511.60
2019-01-04T03:33:01.882Z,332.50
2019-01-04T03:34:01.873Z,292.50
2019-01-04T03:35:01.869Z,314.30
2019-01-04T03:36:01.833Z,277.70
2019-01-04T03:37:01.819Z,220.80
2019-01-04T03:38:01.813Z,210.30
2019-01-04T03:39:01.798Z,177.80
2019-01-04T03:40:01.827Z,182.90
2019-01-04T03:41:01.776Z,190.30
2019-01-04T03:42:01.765Z,167.40
2019-01-04T03:43:01.786Z,172.90
2019-01-04T03:44:01.746Z,150.70
2019-01-04T03:45:01.822Z,119.80
2019-01-04T03:46:01.726Z,134.10
2019-01-04T03:47:01.745Z,136.40
2019-01-04T03:48:01.699Z,112.10
2019-01-04T03:49:01.690Z,115.90
2019-01-04T03:50:01.718Z,94.40
2019-01-04T03:51:01.669Z,121.30
2019-01-04T03:52:01.661Z,144.60
2019-01-04T03:53:01.673Z,115.70
2019-01-04T03:54:01.635Z,101.40
2019-01-04T03:55:01.630Z,84.20
2019-01-04T03:56:01.624Z,99.00
2019-01-04T03:57:01.607Z,96.10
2019-01-04T03:58:01.614Z,94.10
2019-01-04T03:59:01.590Z,85.40
2019-01-04T04:00:01.600Z,116.80
2019-01-04T04:01:01.560Z,108.10
2019-01-04T04:02:01.545Z,94.60
2019-01-04T04:03:01.573Z,116.30
2019-01-04T04:04:01.524Z,112.20
2019-01-04T04:05:01.546Z,91.00
2019-01-04T04:06:01.535Z,89.80
2019-01-04T04:07:01.496Z,81.60
2019-01-04T04:08:01.477Z,87.30
2019-01-04T04:09:01.465Z,89.10
2019-01-04T04:10:01.472Z,82.60
2019-01-04T04:11:01.498Z,89.90
2019-01-04T04:12:01.446Z,87.10
2019-01-04T04:13:01.435Z,92.90
2019-01-04T04:14:01.437Z,84.50
2019-01-04T04:15:01.417Z,80.30
2019-01-04T04:16:01.394Z,86.90
2019-01-04T04:17:01.378Z,85.80
2019-01-04T04:18:01.418Z,96.10
2019-01-04T04:19:01.388Z,89.60
2019-01-04T04:20:01.347Z,76.90
2019-01-04T04:21:01.341Z,76.80
2019-01-04T04:22:01.343Z,79.90
2019-01-04T04:23:01.312Z,78.80
2019-01-04T04:24:01.329Z,69.40
2019-01-04T04:25:01.295Z,70.60
2019-01-04T04:26:01.283Z,69.50
2019-01-04T04:27:01.276Z,66.90
2019-01-04T04:28:01.286Z,79.40
2019-01-04T04:29:01.249Z,95.60
2019-01-04T04:30:01.240Z,82.60
2019-01-04T04:31:01.271Z,83.60
2019-01-04T04:32:01.215Z,78.40
2019-01-04T04:33:01.201Z,69.20
2019-01-04T04:34:01.200Z,74.80
2019-01-04T04:35:01.186Z,69.50
2019-01-04T04:36:01.212Z,63.90
2019-01-04T04:37:01.157Z,61.40
2019-01-04T04:38:01.149Z,63.40
2019-01-04T04:39:01.141Z,58.30
2019-01-04T04:40:01.140Z,62.60
2019-01-04T04:41:01.152Z,68.40
2019-01-04T04:42:01.101Z,58.40
2019-01-04T04:43:01.097Z,59.00
2019-01-04T04:44:01.082Z,59.40
2019-01-04T04:45:01.068Z,71.00
2019-01-04T04:46:01.090Z,63.50
2019-01-04T04:47:01.053Z,72.90
2019-01-04T04:48:01.034Z,69.90
2019-01-04T04:49:01.026Z,73.70
2019-01-04T04:50:01.021Z,79.00
2019-01-04T04:51:01.049Z,77.30
2019-01-04T04:52:00.997Z,66.10
2019-01-04T04:53:00.994Z,80.00
2019-01-04T04:54:00.984Z,70.00
2019-01-04T04:55:00.976Z,71.60
2019-01-04T04:56:00.995Z,74.80
2019-01-04T04:57:00.955Z,74.30
2019-01-04T04:58:00.949Z,75.00
2019-01-04T04:59:00.925Z,83.00
2019-01-04T05:00:00.915Z,73.90
2019-01-04T05:01:00.929Z,77.70
2019-01-04T05:02:00.884Z,87.40
2019-01-04T05:03:00.884Z,76.70
2019-01-04T05:04:00.865Z,70.30
2019-01-04T05:05:00.857Z,78.10
2019-01-04T05:06:00.872Z,83.60
2019-01-04T05:07:00.858Z,72.80
2019-01-04T05:08:00.814Z,74.40
2019-01-04T05:09:00.812Z,75.50
2019-01-04T05:10:00.793Z,74.50
2019-01-04T05:11:00.807Z,77.00
2019-01-04T05:12:00.799Z,73.80
2019-01-04T05:13:00.769Z,75.10
2019-01-04T05:14:00.763Z,64.60
2019-01-04T05:15:00.760Z,89.30
2019-01-04T05:16:00.734Z,64.20
2019-01-04T05:17:00.758Z,67.40
2019-01-04T05:18:00.729Z,61.40
2019-01-04T05:19:00.692Z,74.40
2019-01-04T05:20:00.684Z,66.70
2019-01-04T05:21:00.670Z,65.40
2019-01-04T05:22:00.707Z,74.70
2019-01-04T05:23:00.659Z,73.60
2019-01-04T05:24:00.657Z,63.20
2019-01-04T05:25:00.627Z,66.50
2019-01-04T05:26:00.620Z,54.70
2019-01-04T05:27:00.637Z,58.90
2019-01-04T05:28:00.597Z,77.10
2019-01-04T05:29:00.594Z,58.00
2019-01-04T05:30:00.584Z,65.40
2019-01-04T05:31:00.569Z,65.50
2019-01-04T05:32:00.585Z,61.80
2019-01-04T05:33:00.546Z,70.80
2019-01-04T05:34:00.548Z,72.60
2019-01-04T05:35:00.529Z,73.70
2019-01-04T05:36:00.520Z,64.70
2019-01-04T05:37:00.543Z,74.30
2019-01-04T05:38:00.482Z,83.00
2019-01-04T05:39:00.498Z,65.20
2019-01-04T05:40:00.464Z,77.80
2019-01-04T05:41:00.481Z,84.10
2019-01-04T05:42:00.475Z,83.30
2019-01-04T05:43:00.427Z,84.40
2019-01-04T05:44:00.416Z,89.80
2019-01-04T05:45:00.407Z,77.30
2019-01-04T05:46:00.401Z,76.00
2019-01-04T05:47:00.418Z,80.00
2019-01-04T05:48:00.372Z,80.30
2019-01-04T05:49:00.362Z,74.30
2019-01-04T05:50:00.353Z,75.50
2019-01-04T05:51:00.339Z,113.00
2019-01-04T05:52:00.364Z,86.90
2019-01-04T05:53:00.325Z,91.80
2019-01-04T05:54:00.321Z,80.70
2019-01-04T05:55:00.319Z,82.30
2019-01-04T05:56:00.283Z,75.20
2019-01-04T05:57:00.302Z,91.10
2019-01-04T05:58:00.263Z,87.40
2019-01-04T05:59:00.258Z,88.70
2019-01-04T06:00:00.285Z,101.50
2019-01-04T06:01:00.243Z,96.10
2019-01-04T06:02:00.216Z,93.70
2019-01-04T06:03:00.219Z,100.20
2019-01-04T06:04:00.243Z,114.40
2019-01-04T06:05:00.188Z,92.00
2019-01-04T06:06:00.184Z,107.50
2019-01-04T06:07:00.174Z,115.00
2019-01-04T06:08:00.153Z,114.70
2019-01-04T06:09:00.168Z,108.10
2019-01-04T06:10:00.170Z,107.00
2019-01-04T06:11:00.136Z,106.60
2019-01-04T06:12:00.163Z,124.10
2019-01-04T06:13:00.114Z,124.10
2019-01-04T06:14:00.097Z,145.70
2019-01-04T06:15:00.125Z,123.50
2019-01-04T06:16:00.081Z,116.10
2019-01-04T06:17:00.103Z,127.40
2019-01-04T06:18:00.080Z,127.00
2019-01-04T06:19:00.028Z,121.70
2019-01-04T06:20:00.137Z,149.70
2019-01-04T06:21:00.009Z,179.80
2019-01-04T06:21:59.996Z,130.30
2019-01-04T06:23:00.033Z,162.10
2019-01-04T06:23:59.975Z,160.70
2019-01-04T06:24:59.966Z,165.70
2019-01-04T06:25:59.955Z,163.10
2019-01-04T06:26:59.940Z,157.20
2019-01-04T06:27:59.963Z,160.00
2019-01-04T06:28:59.923Z,160.70
2019-01-04T06:29:59.909Z,163.00
2019-01-04T06:30:59.897Z,178.80
2019-01-04T06:31:59.907Z,186.20
2019-01-04T06:32:59.897Z,195.80
2019-01-04T06:33:59.874Z,170.40
2019-01-04T06:34:59.869Z,164.60
2019-01-04T06:35:59.844Z,192.60
2019-01-04T06:36:59.848Z,201.50
2019-01-04T06:38:00.055Z,197.30
2019-01-04T06:38:59.835Z,214.10
2019-01-04T06:39:59.804Z,221.00
2019-01-04T06:40:59.812Z,218.10
2019-01-04T06:41:59.774Z,191.40
2019-01-04T06:42:59.805Z,225.80
2019-01-04T06:43:59.774Z,197.40
2019-01-04T06:44:59.740Z,258.80
2019-01-04T06:45:59.765Z,251.90
2019-01-04T06:46:59.726Z,271.30
2019-01-04T06:47:59.718Z,238.40
2019-01-04T06:48:59.719Z,234.70
2019-01-04T06:49:59.686Z,203.50
2019-01-04T06:50:59.682Z,213.40
2019-01-04T06:51:59.662Z,219.00
2019-01-04T06:52:59.668Z,178.40
2019-01-04T06:53:59.668Z,183.80
2019-01-04T06:54:59.640Z,214.40
2019-01-04T06:55:59.621Z,201.40
2019-01-04T06:56:59.606Z,250.40
2019-01-04T06:57:59.596Z,208.80
2019-01-04T06:58:59.619Z,198.60
2019-01-04T06:59:59.589Z,197.00
2019-01-04T07:00:59.596Z,253.50
2019-01-04T07:01:59.551Z,239.60
2019-01-04T07:02:59.567Z,256.70
2019-01-04T07:03:59.538Z,235.60
2019-01-04T07:04:59.517Z,249.80
2019-01-04T07:05:59.547Z,257.20
2019-01-04T07:06:59.507Z,259.90
2019-01-04T07:07:59.507Z,284.50
2019-01-04T07:08:59.473Z,258.80
2019-01-04T07:09:59.464Z,273.40
2019-01-04T07:10:59.485Z,226.50
2019-01-04T07:11:59.462Z,233.80
2019-01-04T07:12:59.445Z,212.50
2019-01-04T07:13:59.432Z,307.50
2019-01-04T07:14:59.413Z,225.40
2019-01-04T07:15:59.428Z,236.30
2019-01-04T07:16:59.394Z,234.30
2019-01-04T07:17:59.398Z,227.50
2019-01-04T07:18:59.377Z,208.40
2019-01-04T07:19:59.381Z,253.50
2019-01-04T07:20:59.347Z,217.50
2019-01-04T07:21:59.376Z,221.80
2019-01-04T07:22:59.334Z,240.50
2019-01-04T07:23:59.309Z,210.30
2019-01-04T07:24:59.319Z,234.50
2019-01-04T07:25:59.327Z,246.20
2019-01-04T07:26:59.281Z,220.70
2019-01-04T07:27:59.276Z,226.90
2019-01-04T07:28:59.256Z,232.60
2019-01-04T07:29:59.248Z,214.10
2019-01-04T07:30:59.271Z,221.50
2019-01-04T07:31:59.227Z,220.50
2019-01-04T07:32:59.213Z,245.80
2019-01-04T07:33:59.204Z,209.70
2019-01-04T07:34:59.192Z,191.40
2019-01-04T07:35:59.201Z,210.40
2019-01-04T07:36:59.172Z,221.20
2019-01-04T07:37:59.153Z,224.50
2019-01-04T07:38:59.176Z,209.70
2019-01-04T07:39:59.138Z,232.10
2019-01-04T07:40:59.181Z,213.70
2019-01-04T07:41:59.140Z,203.40
2019-01-04T07:42:59.101Z,213.20
2019-01-04T07:43:59.087Z,235.00
2019-01-04T07:44:59.077Z,204.70
2019-01-04T07:45:59.096Z,196.60
2019-01-04T07:46:59.085Z,194.70
2019-01-04T07:47:59.050Z,227.00
2019-01-04T07:48:59.037Z,227.40
2019-01-04T07:49:59.020Z,233.60
2019-01-04T07:50:59.010Z,205.20
2019-01-04T07:51:59.041Z,212.70
2019-01-04T07:52:58.989Z,206.00
2019-01-04T07:53:58.988Z,246.60
2019-01-04T07:54:58.966Z,208.20
2019-01-04T07:55:58.954Z,282.90
2019-01-04T07:56:58.976Z,225.10
2019-01-04T07:57:58.937Z,280.30
2019-01-04T07:58:58.925Z,258.00
2019-01-04T07:59:58.915Z,247.10
2019-01-04T08:00:58.902Z,262.90
2019-01-04T08:01:58.914Z,215.80
2019-01-04T08:02:58.908Z,258.50
2019-01-04T08:03:58.867Z,208.00
2019-01-04T08:04:58.860Z,244.30
2019-01-04T08:05:58.854Z,259.70
2019-01-04T08:06:58.838Z,214.40
2019-01-04T08:07:58.841Z,213.00
2019-01-04T08:08:58.859Z,222.70
2019-01-04T08:09:58.859Z,188.40
2019-01-04T08:10:58.793Z,192.10
2019-01-04T08:11:58.796Z,203.80
2019-01-04T08:12:58.782Z,189.30
2019-01-04T08:13:58.786Z,189.60
2019-01-04T08:14:58.769Z,201.30
2019-01-04T08:15:58.741Z,201.20
2019-01-04T08:16:58.750Z,190.10
2019-01-04T08:17:58.715Z,186.20
2019-01-04T08:18:58.701Z,158.70
2019-01-04T08:19:58.693Z,154.50
2019-01-04T08:20:58.678Z,173.60
2019-01-04T08:21:58.693Z,179.70
2019-01-04T08:22:58.667Z,172.00
2019-01-04T08:23:58.653Z,172.00
2019-01-04T08:24:58.669Z,178.60
2019-01-04T08:25:58.626Z,223.80
2019-01-04T08:26:58.640Z,187.40
2019-01-04T08:27:58.598Z,185.40
2019-01-04T08:28:58.591Z,202.50
2019-01-04T08:29:58.592Z,217.10
2019-01-04T08:30:58.601Z,190.30
2019-01-04T08:31:58.555Z,193.00
2019-01-04T08:32:58.548Z,197.70
2019-01-04T08:33:58.535Z,221.80
2019-01-04T08:34:58.528Z,187.20
2019-01-04T08:35:58.540Z,212.80
2019-01-04T08:36:58.522Z,204.20
2019-01-04T08:37:58.489Z,195.00
2019-01-04T08:38:58.478Z,193.90
2019-01-04T08:39:58.473Z,210.80
2019-01-04T08:40:58.481Z,218.90
2019-01-04T08:41:58.455Z,187.20
2019-01-04T08:42:58.435Z,219.00
2019-01-04T08:43:58.421Z,188.50
2019-01-04T08:44:58.415Z,198.50
2019-01-04T08:45:58.442Z,149.40
2019-01-04T08:46:58.414Z,171.10
2019-01-04T08:47:58.380Z,150.50
2019-01-04T08:48:58.373Z,153.70
2019-01-04T08:49:58.355Z,184.90
2019-01-04T08:50:58.369Z,179.70
2019-01-04T08:51:58.394Z,184.70
2019-01-04T08:52:58.330Z,164.70
2019-01-04T08:53:58.319Z,183.10
2019-01-04T08:54:58.309Z,160.30
2019-01-04T08:55:58.290Z,192.40
2019-01-04T08:56:58.307Z,173.90
2019-01-04T08:57:58.267Z,181.10
2019-01-04T08:58:58.283Z,171.40
2019-01-04T08:59:58.251Z,171.30
2019-01-04T09:00:58.237Z,187.10
2019-01-04T09:01:58.229Z,206.40
2019-01-04T09:02:58.216Z,175.50
2019-01-04T09:03:58.238Z,158.20
2019-01-04T09:04:58.195Z,175.60
2019-01-04T09:05:58.194Z,158.90
2019-01-04T09:06:58.176Z,139.40
2019-01-04T09:07:58.161Z,163.90
2019-01-04T09:08:58.185Z,132.80
2019-01-04T09:09:58.156Z,132.20
2019-01-04T09:10:58.127Z,150.50
2019-01-04T09:11:58.115Z,158.50
2019-01-04T09:12:58.141Z,117.10
2019-01-04T09:13:58.099Z,121.00
2019-01-04T09:14:58.085Z,137.90
2019-01-04T09:15:58.077Z,136.60
2019-01-04T09:16:58.079Z,122.70
2019-01-04T09:17:58.078Z,108.40
2019-01-04T09:18:58.072Z,103.30
2019-01-04T09:19:58.063Z,106.40
2019-01-04T09:20:58.016Z,118.70
2019-01-04T09:21:58.010Z,112.40
2019-01-04T09:22:58.006Z,108.10
2019-01-04T09:23:57.987Z,96.10
2019-01-04T09:24:58.011Z,121.20
2019-01-04T09:25:57.964Z,106.20
2019-01-04T09:26:57.952Z,119.50
2019-01-04T09:27:57.941Z,112.90
2019-01-04T09:28:57.940Z,135.80
2019-01-04T09:29:57.953Z,116.20
2019-01-04T09:30:57.920Z,110.60
2019-01-04T09:31:57.897Z,127.10
2019-01-04T09:32:57.903Z,120.10
2019-01-04T09:33:57.885Z,143.20
2019-01-04T09:34:57.906Z,116.30
2019-01-04T09:35:57.861Z,111.70
2019-01-04T09:36:57.841Z,113.50
2019-01-04T09:37:57.849Z,122.50
2019-01-04T09:39:03.157Z,128.00
2019-01-04T09:39:58.857Z,116.90
2019-01-04T09:40:57.800Z,113.90
2019-01-04T09:41:57.787Z,117.40
2019-01-04T09:42:57.775Z,121.30
2019-01-04T09:43:57.780Z,121.00
2019-01-04T09:44:57.760Z,124.80
2019-01-04T09:45:57.790Z,126.90
2019-01-04T09:46:57.752Z,136.60
2019-01-04T09:47:57.730Z,120.20
2019-01-04T09:48:57.713Z,125.90
2019-01-04T09:49:57.698Z,131.50
2019-01-04T09:50:57.716Z,109.70
2019-01-04T09:51:57.685Z,113.50
2019-01-04T09:52:57.668Z,101.30
2019-01-04T09:53:57.662Z,119.50
2019-01-04T09:54:57.685Z,118.70
2019-01-04T09:55:57.655Z,107.40
2019-01-04T09:56:57.631Z,107.60
2019-01-04T09:57:57.639Z,107.10
2019-01-04T09:58:57.606Z,109.90
2019-01-04T09:59:57.618Z,99.60
2019-01-04T10:00:57.583Z,102.80
2019-01-04T10:01:57.580Z,85.70
2019-01-04T10:02:57.591Z,96.80
2019-01-04T10:03:57.548Z,89.40
2019-01-04T10:04:57.550Z,101.30
2019-01-04T10:05:57.528Z,117.20
2019-01-04T10:06:57.545Z,116.60
2019-01-04T10:07:57.539Z,119.50
2019-01-04T10:08:57.497Z,96.30
2019-01-04T10:09:57.485Z,108.90
2019-01-04T10:10:57.504Z,97.30
2019-01-04T10:11:57.468Z,111.60
2019-01-04T10:12:57.452Z,102.20
2019-01-04T10:13:57.484Z,102.00
2019-01-04T10:14:57.431Z,95.50
2019-01-04T10:15:57.418Z,94.80
2019-01-04T10:16:57.410Z,113.10
2019-01-04T10:17:57.399Z,120.30
2019-01-04T10:18:57.411Z,116.20
2019-01-04T10:19:57.376Z,102.00
2019-01-04T10:20:57.368Z,129.70
2019-01-04T10:21:57.357Z,113.70
2019-01-04T10:22:57.369Z,100.80
2019-01-04T10:23:57.336Z,102.10
2019-01-04T10:24:57.326Z,94.70
2019-01-04T10:25:57.309Z,111.10
2019-01-04T10:26:57.300Z,102.20
2019-01-04T10:27:57.313Z,106.20
2019-01-04T10:28:57.283Z,121.70
2019-01-04T10:29:57.291Z,127.50
2019-01-04T10:30:57.267Z,123.30
2019-01-04T10:31:57.258Z,124.10
2019-01-04T10:32:57.238Z,138.10
2019-01-04T10:33:57.256Z,113.00
2019-01-04T10:34:57.214Z,112.50
2019-01-04T10:35:57.226Z,111.80
2019-01-04T10:36:57.192Z,107.40
2019-01-04T10:37:57.180Z,111.40
2019-01-04T10:38:57.211Z,122.80
2019-01-04T10:39:57.188Z,124.80
2019-01-04T10:40:57.148Z,120.50
2019-01-04T10:41:57.145Z,112.00
2019-01-04T10:42:57.134Z,126.40
2019-01-04T10:43:57.115Z,124.30
2019-01-04T10:44:57.133Z,135.20
2019-01-04T10:45:57.095Z,143.50
2019-01-04T10:46:57.086Z,105.50
2019-01-04T10:47:57.082Z,129.70
2019-01-04T10:48:57.087Z,132.70
2019-01-04T10:49:57.053Z,129.80
2019-01-04T10:50:57.039Z,135.70
2019-01-04T10:51:57.061Z,129.90
2019-01-04T10:52:57.025Z,151.80
2019-01-04T10:53:57.043Z,150.40
2019-01-04T10:54:57.012Z,151.40
2019-01-04T10:55:56.988Z,127.60
2019-01-04T10:56:56.973Z,140.20
2019-01-04T10:57:56.964Z,123.70
2019-01-04T10:58:56.984Z,129.30
2019-01-04T10:59:56.946Z,125.90
2019-01-04T11:00:56.958Z,147.80
2019-01-04T11:01:56.931Z,119.40
2019-01-04T11:02:56.906Z,120.60
2019-01-04T11:03:56.944Z,117.80
2019-01-04T11:04:56.887Z,100.40
2019-01-04T11:05:56.877Z,95.20
2019-01-04T11:06:56.871Z,91.40
2019-01-04T11:07:56.860Z,89.50
2019-01-04T11:08:56.864Z,105.00
2019-01-04T11:09:56.831Z,100.10
2019-01-04T11:10:56.850Z,102.70
2019-01-04T11:11:56.810Z,120.50
2019-01-04T11:12:56.826Z,96.50
2019-01-04T11:13:56.794Z,119.80
2019-01-04T11:14:56.782Z,99.10
2019-01-04T11:15:56.787Z,79.50
2019-01-04T11:16:58.222Z,92.40
2019-01-04T11:17:56.759Z,92.70
2019-01-04T11:18:56.737Z,94.30
2019-01-04T11:19:56.725Z,88.80
2019-01-04T11:20:56.738Z,104.90
2019-01-04T11:21:56.699Z,106.80
2019-01-04T11:22:56.696Z,94.50
2019-01-04T11:23:56.677Z,90.70
2019-01-04T11:24:56.701Z,105.10
2019-01-04T11:25:56.657Z,79.40
2019-01-04T11:26:56.667Z,69.50
2019-01-04T11:27:56.651Z,76.50
2019-01-04T11:28:56.663Z,72.30
2019-01-04T11:29:56.613Z,75.30
2019-01-04T11:30:56.612Z,74.40
2019-01-04T11:31:56.590Z,73.20
2019-01-04T11:32:56.580Z,67.40
2019-01-04T11:33:56.605Z,65.50
2019-01-04T11:34:56.564Z,70.80
2019-01-04T11:35:56.550Z,62.60
2019-01-04T11:36:56.547Z,64.90
2019-01-04T11:37:56.575Z,71.80
2019-01-04T11:38:56.554Z,71.70
2019-01-04T11:39:56.523Z,59.40
2019-01-04T11:40:56.519Z,53.50
2019-01-04T11:41:56.508Z,61.20
2019-01-04T11:42:56.473Z,67.00
2019-01-04T11:43:56.499Z,55.60
2019-01-04T11:44:56.450Z,52.20
2019-01-04T11:45:56.446Z,57.40
2019-01-04T11:46:56.449Z,64.20
2019-01-04T11:47:56.418Z,62.70
2019-01-04T11:48:56.435Z,58.90
2019-01-04T11:49:56.425Z,56.40
2019-01-04T11:50:56.395Z,55.30
2019-01-04T11:51:56.379Z,56.20
2019-01-04T11:52:56.384Z,59.90
2019-01-04T11:53:56.353Z,56.80
2019-01-04T11:54:56.367Z,69.70
2019-01-04T11:55:56.339Z,56.90
2019-01-04T11:56:56.327Z,60.10
2019-01-04T11:57:56.323Z,57.00
2019-01-04T11:58:56.320Z,60.40
2019-01-04T11:59:56.326Z,58.80
2019-01-04T12:00:56.278Z,57.10
2019-01-04T12:01:56.270Z,57.20
2019-01-04T12:02:56.257Z,49.10
2019-01-04T12:03:56.247Z,59.90
2019-01-04T12:04:56.270Z,53.90
2019-01-04T12:05:56.227Z,60.30
2019-01-04T12:06:56.217Z,48.50
2019-01-04T12:07:56.203Z,52.00
2019-01-04T12:08:56.195Z,55.40
2019-01-04T12:09:56.210Z,56.50
2019-01-04T12:10:56.201Z,49.80
2019-01-04T12:11:56.161Z,54.80
2019-01-04T12:12:56.151Z,52.00
2019-01-04T12:13:56.138Z,50.10
2019-01-04T12:14:56.130Z,54.70
2019-01-04T12:15:56.143Z,50.50
2019-01-04T12:16:56.108Z,48.20
2019-01-04T12:17:56.118Z,50.90
2019-01-04T12:18:56.089Z,48.50
2019-01-04T12:19:56.097Z,47.40
2019-01-04T12:20:56.063Z,52.10
2019-01-04T12:21:56.054Z,53.20
2019-01-04T12:22:56.047Z,49.20
2019-01-04T12:23:56.031Z,46.80
2019-01-04T12:24:56.047Z,47.00
2019-01-04T12:25:56.023Z,53.00
2019-01-04T12:26:55.999Z,49.20
2019-01-04T12:27:55.987Z,48.00
2019-01-04T12:28:55.977Z,41.90
2019-01-04T12:29:55.993Z,36.20
2019-01-04T12:30:55.961Z,35.20
2019-01-04T12:31:55.959Z,38.70
2019-01-04T12:32:55.937Z,40.30
2019-01-04T12:33:55.921Z,43.60
2019-01-04T12:34:55.934Z,37.80
2019-01-04T12:35:55.926Z,34.10